Time;durP1;ratioP1;P1;durP2;ratioP2;P2;SDS_P1;SDS_P2;PMS_P1;PMS_P2;Temp;Humidity;BMP_temperature;BMP_pressure;BME280_temperature;BME280_humidity;BME280_pressure;Samples;Min_cycle;Max_cycle;Signal;HPM_P1;HPM_P2
2023/02/17 00:01:23;;;;;;;49.88;40.08;;;7.30;99.90;;;;;;5007407;28;20415;-81
2023/02/17 00:03:50;;;;;;;48.67;39.63;;;7.30;99.90;;;;;;5008908;28;20466;-81
2023/02/17 00:06:18;;;;;;;51.85;42.47;;;7.20;99.90;;;;;;5009422;28;20419;-82
2023/02/17 00:08:44;;;;;;;52.65;43.45;;;7.20;99.90;;;;;;5008009;28;20364;-81
2023/02/17 00:11:10;;;;;;;55.45;43.63;;;7.00;99.90;;;;;;5008429;28;20403;-82
2023/02/17 00:13:36;;;;;;;55.90;43.80;;;7.00;99.90;;;;;;5007134;28;20367;-81
2023/02/17 00:16:07;;;;;;;56.75;44.75;;;7.00;99.90;;;;;;5003102;28;20465;-81
2023/02/17 00:18:33;;;;;;;56.55;45.55;;;7.00;99.90;;;;;;5007863;28;20383;-82
2023/02/17 00:20:58;;;;;;;54.60;43.92;;;7.00;99.90;;;;;;5007959;28;20414;-81
2023/02/17 00:23:24;;;;;;;54.40;43.30;;;7.20;99.90;;;;;;5008387;28;21040;-81
2023/02/17 00:25:50;;;;;;;55.30;44.10;;;7.20;99.90;;;;;;5008116;28;20763;-81
2023/02/17 00:28:15;;;;;;;54.50;43.20;;;7.30;99.90;;;;;;5004454;28;20747;-81
2023/02/17 00:30:41;;;;;;;56.00;43.67;;;7.20;99.90;;;;;;4970998;28;20444;-80
2023/02/17 00:33:07;;;;;;;58.10;45.80;;;7.10;99.90;;;;;;5000497;28;20380;-82
2023/02/17 00:35:32;;;;;;;57.70;46.03;;;7.00;99.90;;;;;;5006628;28;20395;-82
2023/02/17 00:37:58;;;;;;;58.83;45.10;;;7.00;99.90;;;;;;5007311;28;20385;-82
2023/02/17 00:40:24;;;;;;;56.97;44.80;;;7.00;99.90;;;;;;5005923;28;20390;-83
2023/02/17 00:42:49;;;;;;;57.17;44.80;;;6.90;99.90;;;;;;5010802;28;20383;-82
2023/02/17 00:45:15;;;;;;;56.60;44.17;;;7.00;99.90;;;;;;4994795;28;20375;-83
2023/02/17 00:47:41;;;;;;;57.05;43.78;;;7.00;99.90;;;;;;5009835;28;20742;-83
2023/02/17 00:50:07;;;;;;;55.58;43.90;;;7.00;99.90;;;;;;5008708;28;20936;-83
2023/02/17 00:52:33;;;;;;;57.65;44.08;;;7.00;99.90;;;;;;5011647;28;20457;-82
2023/02/17 00:54:58;;;;;;;55.72;44.38;;;7.00;99.90;;;;;;4994889;28;21209;-83
2023/02/17 00:57:25;;;;;;;53.03;42.80;;;7.00;99.90;;;;;;5010245;28;20407;-81
2023/02/17 00:59:50;;;;;;;51.80;42.00;;;7.00;99.90;;;;;;5010159;28;20402;-80
2023/02/17 01:02:16;;;;;;;51.22;42.42;;;7.10;99.90;;;;;;4996329;28;20397;-82
2023/02/17 01:04:42;;;;;;;53.78;42.25;;;7.20;99.90;;;;;;5007968;28;20498;-80
2023/02/17 01:07:08;;;;;;;50.57;41.43;;;7.10;99.90;;;;;;5008596;28;20386;-82
2023/02/17 01:09:34;;;;;;;52.90;41.80;;;7.10;99.90;;;;;;5009499;28;20885;-80
2023/02/17 01:11:59;;;;;;;52.83;42.00;;;7.10;99.90;;;;;;5010657;28;20501;-81
2023/02/17 01:14:25;;;;;;;52.07;42.47;;;7.20;99.90;;;;;;4996947;28;20421;-82
2023/02/17 01:16:51;;;;;;;51.72;41.67;;;7.10;99.90;;;;;;5009266;28;20398;-80
2023/02/17 01:19:18;;;;;;;53.17;43.22;;;7.30;99.90;;;;;;5008568;28;20474;-82
2023/02/17 01:21:44;;;;;;;53.25;42.47;;;7.20;99.90;;;;;;5010621;28;20387;-81
2023/02/17 01:24:11;;;;;;;50.90;41.35;;;7.20;99.90;;;;;;5010763;28;20394;-83
2023/02/17 01:26:38;;;;;;;51.50;42.38;;;7.20;99.90;;;;;;5011117;28;20442;-81
2023/02/17 01:29:05;;;;;;;55.65;43.00;;;7.10;99.90;;;;;;5010537;28;20445;-82
2023/02/17 01:31:31;;;;;;;54.28;43.55;;;7.10;99.90;;;;;;5011034;28;21071;-81
2023/02/17 01:33:59;;;;;;;52.13;42.53;;;7.10;99.90;;;;;;5009368;28;20380;-83
2023/02/17 01:36:25;;;;;;;53.10;42.55;;;7.10;99.90;;;;;;5001275;28;20475;-81
2023/02/17 01:38:51;;;;;;;56.65;44.67;;;7.10;99.90;;;;;;4989569;28;20484;-83
2023/02/17 01:41:19;;;;;;;57.15;44.88;;;7.00;99.90;;;;;;5005301;28;20445;-81
2023/02/17 01:44:06;;;;;;;56.58;46.00;;;7.10;99.90;;;;;;5011104;28;20750;-81
2023/02/17 01:46:34;;;;;;;59.92;46.70;;;7.10;99.90;;;;;;5010697;28;20386;-82
2023/02/17 01:49:03;;;;;;;62.15;47.45;;;7.10;99.90;;;;;;5009971;28;20387;-81
2023/02/17 01:51:33;;;;;;;63.15;48.40;;;7.00;99.90;;;;;;5009271;28;20403;-81
2023/02/17 01:54:06;;;;;;;67.13;49.95;;;7.00;99.90;;;;;;4992451;28;20391;-80
2023/02/17 01:56:37;;;;;;;68.83;52.03;;;7.00;99.90;;;;;;5008969;28;20402;-80
2023/02/17 01:59:17;;;;;;;69.00;51.63;;;6.90;99.90;;;;;;4990212;28;20382;-81
2023/02/17 02:01:42;;;;;;;72.72;53.67;;;6.90;99.90;;;;;;4990840;28;20381;-82
2023/02/17 02:04:09;;;;;;;75.18;54.05;;;6.90;99.90;;;;;;4990694;28;20411;-80
2023/02/17 02:06:39;;;;;;;77.20;54.15;;;6.90;99.90;;;;;;4989476;28;20505;-80
2023/02/17 02:09:31;;;;;;;71.40;53.63;;;6.80;99.90;;;;;;4990776;28;20384;-82
2023/02/17 02:11:58;;;;;;;75.25;54.65;;;7.00;99.90;;;;;;4972772;28;20562;-81
2023/02/17 02:14:25;;;;;;;76.72;54.92;;;6.90;99.90;;;;;;4992235;28;20399;-80
2023/02/17 02:17:01;;;;;;;76.50;56.70;;;6.90;99.90;;;;;;5007819;28;20474;-83
2023/02/17 02:19:41;;;;;;;77.10;55.17;;;6.80;99.90;;;;;;5008391;28;20486;-82
2023/02/17 02:22:13;;;;;;;77.50;55.83;;;6.80;99.90;;;;;;5007393;28;20528;-82
2023/02/17 02:24:44;;;;;;;78.70;56.33;;;6.80;99.90;;;;;;5007474;28;20458;-81
2023/02/17 02:27:27;;;;;;;79.65;56.85;;;7.00;99.90;;;;;;5009133;28;20384;-81
2023/02/17 02:29:56;;;;;;;83.40;57.00;;;7.00;99.90;;;;;;5007451;28;20406;-81
2023/02/17 02:32:38;;;;;;;86.75;59.40;;;6.90;99.90;;;;;;5008156;28;20529;-81
2023/02/17 02:35:15;;;;;;;84.43;58.80;;;6.90;99.90;;;;;;5008176;28;20474;-82
2023/02/17 02:37:52;;;;;;;86.93;61.17;;;6.90;99.90;;;;;;5003563;28;20442;-80
2023/02/17 02:40:23;;;;;;;85.20;59.38;;;6.80;99.90;;;;;;5004079;28;20472;-81
2023/02/17 02:42:53;;;;;;;82.83;58.00;;;6.90;99.90;;;;;;4992879;28;20465;-82
2023/02/17 02:45:20;;;;;;;85.03;60.58;;;7.00;99.90;;;;;;5008127;28;20412;-82
2023/02/17 02:47:54;;;;;;;87.07;60.88;;;7.00;99.90;;;;;;5007840;28;20379;-81
2023/02/17 02:50:43;;;;;;;89.70;62.22;;;6.90;99.90;;;;;;4977761;28;20536;-82
2023/02/17 02:53:28;;;;;;;87.10;61.25;;;6.90;99.90;;;;;;4974367;28;20411;-81
2023/02/17 02:56:17;;;;;;;91.72;61.78;;;6.90;99.90;;;;;;4993575;28;20411;-81
2023/02/17 02:59:04;;;;;;;89.22;62.58;;;6.90;99.90;;;;;;4979123;28;20554;-82
2023/02/17 03:01:53;;;;;;;89.32;61.95;;;6.90;99.90;;;;;;4979267;28;20414;-81
2023/02/17 03:04:18;;;;;;;91.40;62.38;;;7.00;99.90;;;;;;4979162;28;20395;-81
2023/02/17 03:06:54;;;;;;;93.13;63.50;;;7.00;99.90;;;;;;5258824;23;20481;-82
2023/02/17 03:09:23;;;;;;;96.43;64.07;;;7.10;99.90;;;;;;5022570;28;20389;-82
2023/02/17 03:11:50;;;;;;;95.38;64.95;;;7.00;99.90;;;;;;5024965;28;20408;-82
2023/02/17 03:14:18;;;;;;;95.60;66.03;;;7.10;99.90;;;;;;5029461;28;20477;-80
2023/02/17 03:16:45;;;;;;;101.17;68.73;;;7.00;99.90;;;;;;5024008;28;20752;-80
2023/02/17 03:19:13;;;;;;;98.17;66.73;;;7.00;99.90;;;;;;5026451;28;20516;-81
2023/02/17 03:21:43;;;;;;;101.87;69.40;;;7.10;99.90;;;;;;5026469;28;20408;-81
2023/02/17 03:24:08;;;;;;;99.32;68.18;;;7.10;99.90;;;;;;5026036;28;20405;-82
2023/02/17 03:26:34;;;;;;;103.53;69.07;;;7.00;99.90;;;;;;5016244;28;20409;-81
2023/02/17 03:29:00;;;;;;;111.45;71.55;;;7.00;99.90;;;;;;4990125;28;20470;-81
2023/02/17 03:31:26;;;;;;;105.70;71.47;;;7.10;99.90;;;;;;5008133;28;20478;-81
2023/02/17 03:33:52;;;;;;;103.72;71.75;;;7.10;99.90;;;;;;5025558;28;20404;-80
2023/02/17 03:36:18;;;;;;;111.90;71.40;;;7.10;99.90;;;;;;5016625;28;20403;-82
2023/02/17 03:38:44;;;;;;;105.88;73.43;;;7.10;99.90;;;;;;5006160;28;20441;-83
2023/02/17 03:41:10;;;;;;;115.50;75.25;;;7.10;99.90;;;;;;5003639;28;20444;-81
2023/02/17 03:43:35;;;;;;;111.90;73.32;;;7.10;99.90;;;;;;4987761;28;20449;-82
2023/02/17 03:46:01;;;;;;;115.10;74.88;;;7.10;99.90;;;;;;5003519;28;20760;-82
2023/02/17 03:48:27;;;;;;;113.73;74.80;;;7.10;99.90;;;;;;5026229;28;20442;-82
2023/02/17 03:50:53;;;;;;;114.47;77.97;;;7.10;99.90;;;;;;5025009;28;20401;-81
2023/02/17 03:53:18;;;;;;;114.87;74.33;;;7.10;99.90;;;;;;5027135;28;20864;-81
2023/02/17 03:55:44;;;;;;;120.30;77.33;;;7.10;99.90;;;;;;5004906;28;20513;-81
2023/02/17 03:58:10;;;;;;;117.25;76.60;;;7.10;99.90;;;;;;4996449;28;20545;-82
2023/02/17 04:00:37;;;;;;;116.80;75.45;;;7.20;99.90;;;;;;5001345;28;20410;-81
2023/02/17 04:03:03;;;;;;;121.20;79.00;;;7.20;99.90;;;;;;5007373;28;20387;-81
2023/02/17 04:05:29;;;;;;;116.05;75.07;;;7.20;99.90;;;;;;5008213;28;20534;-82
2023/02/17 04:07:57;;;;;;;123.87;78.27;;;7.10;99.90;;;;;;5007854;28;20481;-82
2023/02/17 04:10:23;;;;;;;113.65;76.03;;;7.10;99.90;;;;;;5013212;28;20393;-82
2023/02/17 04:12:49;;;;;;;115.57;75.60;;;7.10;99.90;;;;;;5005968;28;20383;-80
2023/02/17 04:15:15;;;;;;;114.68;74.25;;;7.30;99.90;;;;;;5007604;28;20890;-81
2023/02/17 04:17:52;;;;;;;116.23;76.13;;;7.30;99.90;;;;;;4991021;28;20394;-81
2023/02/17 04:20:18;;;;;;;113.05;74.57;;;7.20;99.90;;;;;;5011888;28;20379;-80
2023/02/17 04:22:47;;;;;;;117.32;77.43;;;7.30;99.90;;;;;;5011531;28;20375;-82
2023/02/17 04:25:15;;;;;;;118.97;76.70;;;7.20;99.90;;;;;;5010260;28;20885;-80
2023/02/17 04:27:41;;;;;;;120.18;77.85;;;7.30;99.90;;;;;;4993813;28;20410;-81
2023/02/17 04:30:10;;;;;;;119.95;78.25;;;7.30;99.90;;;;;;5011592;28;20469;-81
2023/02/17 04:32:36;;;;;;;116.93;74.75;;;7.30;99.90;;;;;;5011297;28;20391;-82
2023/02/17 04:35:01;;;;;;;118.35;77.15;;;7.40;99.90;;;;;;4993990;28;20860;-81
2023/02/17 04:37:27;;;;;;;118.10;75.40;;;7.30;99.90;;;;;;5010567;28;20374;-81
2023/02/17 04:39:53;;;;;;;112.75;73.80;;;7.30;99.90;;;;;;5011312;28;20388;-82
2023/02/17 04:42:18;;;;;;;107.37;72.17;;;7.30;99.90;;;;;;5010368;28;20414;-81
2023/02/17 04:44:44;;;;;;;112.67;72.73;;;7.30;99.90;;;;;;5011550;28;20434;-82
2023/02/17 04:47:12;;;;;;;109.50;72.05;;;7.30;99.90;;;;;;4992663;28;20837;-82
2023/02/17 04:49:47;;;;;;;106.93;71.68;;;7.30;99.90;;;;;;5018709;28;20464;-81
2023/02/17 04:52:59;;;;;;;103.95;71.00;;;7.30;99.90;;;;;;4992073;28;20412;-82
2023/02/17 04:55:34;;;;;;;113.77;72.87;;;7.40;99.90;;;;;;5021761;28;20405;-83
2023/02/17 04:58:11;;;;;;;108.07;72.55;;;7.30;99.90;;;;;;5006480;28;20750;-82
2023/02/17 05:00:39;;;;;;;104.07;69.97;;;7.30;99.90;;;;;;5008837;28;20481;-82
2023/02/17 05:03:29;;;;;;;104.35;69.05;;;7.30;99.90;;;;;;5012011;28;20398;-83
2023/02/17 05:05:54;;;;;;;102.38;69.50;;;7.30;99.90;;;;;;5014232;28;20415;-82
2023/02/17 05:08:22;;;;;;;99.55;65.50;;;7.30;99.90;;;;;;5017353;28;20456;-82
2023/02/17 05:10:51;;;;;;;101.35;67.72;;;7.30;99.90;;;;;;5004301;28;20424;-82
2023/02/17 05:13:17;;;;;;;94.78;64.22;;;7.30;99.90;;;;;;5029253;28;20879;-81
2023/02/17 05:15:44;;;;;;;94.78;65.07;;;7.30;99.90;;;;;;5015410;28;20434;-82
2023/02/17 05:18:13;;;;;;;99.18;64.13;;;7.30;99.90;;;;;;5011046;28;20422;-82
2023/02/17 05:20:39;;;;;;;91.03;62.87;;;7.40;99.90;;;;;;5010216;28;20884;-83
2023/02/17 05:23:05;;;;;;;91.37;62.33;;;7.40;99.90;;;;;;5009771;28;20386;-82
2023/02/17 05:25:34;;;;;;;87.53;61.60;;;7.40;99.90;;;;;;5006494;28;20393;-82
2023/02/17 05:28:00;;;;;;;92.43;63.22;;;7.40;99.90;;;;;;5006835;28;20453;-85
2023/02/17 05:30:27;;;;;;;90.32;62.05;;;7.40;99.90;;;;;;5011504;28;20383;-84
2023/02/17 05:32:53;;;;;;;84.65;59.67;;;7.40;99.90;;;;;;5011463;28;20391;-82
2023/02/17 05:35:19;;;;;;;83.32;58.75;;;7.40;99.90;;;;;;5011737;28;20392;-82
2023/02/17 05:37:45;;;;;;;85.30;59.25;;;7.40;99.90;;;;;;5012119;28;20391;-84
2023/02/17 05:40:14;;;;;;;79.47;57.03;;;7.40;99.90;;;;;;5013254;28;20865;-84
2023/02/17 05:42:40;;;;;;;76.70;55.25;;;7.40;99.90;;;;;;5010049;28;20400;-84
2023/02/17 05:45:06;;;;;;;75.07;53.83;;;7.50;99.90;;;;;;4994306;28;20418;-84
2023/02/17 05:47:34;;;;;;;72.50;54.33;;;7.40;99.90;;;;;;5011281;28;20450;-87
2023/02/17 05:50:00;;;;;;;72.13;53.20;;;7.50;99.90;;;;;;5013575;28;20792;-85
2023/02/17 05:52:26;;;;;;;69.20;51.70;;;7.50;99.90;;;;;;5014129;28;20889;-85
2023/02/17 05:54:52;;;;;;;68.97;51.78;;;7.50;99.90;;;;;;5011897;28;20390;-85
2023/02/17 05:57:18;;;;;;;62.40;48.40;;;7.50;99.90;;;;;;5012315;28;20387;-86
2023/02/17 05:59:43;;;;;;;67.13;49.53;;;7.50;99.90;;;;;;5026946;28;20761;-84
2023/02/17 06:02:09;;;;;;;60.73;47.07;;;7.60;99.90;;;;;;5011058;28;20388;-84
2023/02/17 06:04:35;;;;;;;60.97;46.67;;;7.60;99.90;;;;;;5012249;28;20394;-82
2023/02/17 06:07:01;;;;;;;58.20;45.45;;;7.50;99.90;;;;;;5020187;28;20430;-84
2023/02/17 06:09:27;;;;;;;62.13;45.90;;;7.50;99.90;;;;;;5029810;28;20393;-84
2023/02/17 06:11:53;;;;;;;56.05;44.53;;;7.60;99.90;;;;;;5008892;28;20421;-84
2023/02/17 06:14:22;;;;;;;57.38;45.33;;;7.60;99.90;;;;;;5009567;28;20371;-85
2023/02/17 06:16:48;;;;;;;54.03;43.47;;;7.60;99.90;;;;;;4991507;28;20397;-81
2023/02/17 06:19:13;;;;;;;54.67;41.80;;;7.60;99.90;;;;;;5020594;28;20401;-82
2023/02/17 06:21:39;;;;;;;51.97;41.33;;;7.60;99.90;;;;;;5023558;28;20884;-82
2023/02/17 06:24:05;;;;;;;50.88;39.80;;;7.70;99.90;;;;;;5022977;28;20405;-81
2023/02/17 06:26:31;;;;;;;50.55;39.10;;;7.70;99.90;;;;;;5023750;28;20459;-82
2023/02/17 06:28:56;;;;;;;47.83;37.47;;;7.70;99.90;;;;;;5023703;28;20409;-82
2023/02/17 06:31:22;;;;;;;48.83;38.23;;;7.80;99.90;;;;;;5018227;28;20407;-81
2023/02/17 06:33:49;;;;;;;45.70;36.72;;;7.80;99.90;;;;;;5008584;28;20382;-83
2023/02/17 06:36:15;;;;;;;44.38;36.30;;;7.80;99.90;;;;;;5009266;28;20391;-84
2023/02/17 06:38:40;;;;;;;45.08;36.40;;;7.80;99.90;;;;;;5009291;28;20455;-84
2023/02/17 06:41:06;;;;;;;42.93;34.90;;;7.90;99.90;;;;;;5008578;28;20478;-83
2023/02/17 06:43:32;;;;;;;40.60;33.63;;;7.90;99.90;;;;;;5008016;28;20375;-84
2023/02/17 06:45:57;;;;;;;41.28;33.83;;;8.00;99.90;;;;;;5008309;28;20383;-83
2023/02/17 06:48:26;;;;;;;39.60;33.30;;;7.90;99.90;;;;;;5024588;28;20788;-85
2023/02/17 06:50:51;;;;;;;41.28;33.55;;;8.00;99.90;;;;;;5009729;28;20410;-84
2023/02/17 06:53:17;;;;;;;40.05;33.15;;;8.00;99.90;;;;;;5008113;28;20907;-83
2023/02/17 06:55:44;;;;;;;39.60;33.33;;;8.00;99.90;;;;;;5009870;28;20838;-82
2023/02/17 06:58:10;;;;;;;40.70;32.45;;;8.00;99.90;;;;;;5008606;28;20381;-83
2023/02/17 07:00:36;;;;;;;37.70;31.63;;;8.00;99.90;;;;;;5009062;28;20431;-83
2023/02/17 07:03:01;;;;;;;36.45;30.80;;;8.10;99.90;;;;;;5007159;28;20388;-83
2023/02/17 07:05:27;;;;;;;35.23;30.93;;;8.10;99.90;;;;;;5008192;28;20422;-84
2023/02/17 07:07:56;;;;;;;34.87;30.20;;;8.20;99.90;;;;;;5007465;28;20387;-84
2023/02/17 07:10:21;;;;;;;34.47;30.58;;;8.20;99.90;;;;;;5007297;28;20395;-83
2023/02/17 07:12:50;;;;;;;32.55;28.88;;;8.20;99.90;;;;;;5007821;28;20908;-82
2023/02/17 07:15:16;;;;;;;31.20;27.85;;;8.20;99.90;;;;;;5007914;28;20399;-85
2023/02/17 07:17:42;;;;;;;32.63;28.30;;;8.20;99.90;;;;;;5008485;28;20385;-84
2023/02/17 07:20:08;;;;;;;31.00;27.13;;;8.30;99.90;;;;;;5007681;28;20395;-83
2023/02/17 07:22:34;;;;;;;30.90;26.33;;;8.30;99.90;;;;;;5005529;28;20407;-83
2023/02/17 07:25:00;;;;;;;31.13;25.70;;;8.30;99.90;;;;;;5008866;28;20405;-84
2023/02/17 07:27:25;;;;;;;27.90;24.90;;;8.40;99.90;;;;;;5007713;28;20383;-82
2023/02/17 07:29:51;;;;;;;28.37;25.27;;;8.40;99.90;;;;;;5007525;28;20462;-82
2023/02/17 07:32:17;;;;;;;26.73;23.77;;;8.40;99.90;;;;;;4991820;28;20557;-83
2023/02/17 07:34:43;;;;;;;27.42;23.85;;;8.50;99.90;;;;;;4990905;28;20398;-82
2023/02/17 07:37:09;;;;;;;26.33;23.60;;;8.50;99.90;;;;;;4990440;28;20924;-82
2023/02/17 07:39:34;;;;;;;26.60;23.77;;;8.60;99.90;;;;;;5008750;28;20382;-84
2023/02/17 07:42:03;;;;;;;26.27;23.38;;;8.60;99.90;;;;;;5007703;28;20754;-82
2023/02/17 07:44:29;;;;;;;26.75;23.92;;;8.60;99.90;;;;;;5023206;28;20774;-82
2023/02/17 07:46:55;;;;;;;26.23;23.48;;;8.70;99.90;;;;;;5010383;28;20465;-84
2023/02/17 07:49:21;;;;;;;25.42;22.75;;;8.70;99.90;;;;;;5008365;28;20386;-82
2023/02/17 07:51:47;;;;;;;24.77;22.10;;;8.70;99.90;;;;;;5008582;28;20407;-84
2023/02/17 07:54:13;;;;;;;25.83;23.03;;;8.70;99.90;;;;;;5006733;28;20433;-85
2023/02/17 07:56:38;;;;;;;26.63;22.67;;;8.70;99.90;;;;;;5008657;28;20854;-84
2023/02/17 07:59:10;;;;;;;24.75;21.90;;;8.80;99.90;;;;;;5008487;28;20383;-84
2023/02/17 08:01:37;;;;;;;23.90;21.15;;;8.80;99.90;;;;;;5008576;28;20469;-84
2023/02/17 08:04:03;;;;;;;24.58;22.05;;;8.80;99.90;;;;;;5008163;28;20371;-83
2023/02/17 08:06:29;;;;;;;24.15;21.65;;;8.80;99.90;;;;;;5008657;28;20442;-84
2023/02/17 08:14:28;;;;;;;25.48;22.80;;;8.80;99.90;;;;;;5008705;28;20490;-84
2023/02/17 08:16:57;;;;;;;25.48;22.77;;;8.80;99.90;;;;;;5023314;28;20391;-83
2023/02/17 08:19:24;;;;;;;25.98;23.25;;;8.80;99.90;;;;;;5007275;28;20445;-83
2023/02/17 08:21:50;;;;;;;27.23;24.40;;;8.80;99.90;;;;;;5010257;28;20876;-82
2023/02/17 08:24:18;;;;;;;25.95;23.25;;;8.80;99.90;;;;;;5010194;28;20395;-82
2023/02/17 08:26:44;;;;;;;26.70;23.90;;;8.80;99.90;;;;;;5005914;28;20415;-84
2023/02/17 08:29:10;;;;;;;28.23;25.17;;;8.80;99.90;;;;;;5019517;28;20480;-83
2023/02/17 08:31:36;;;;;;;26.70;23.77;;;8.80;99.90;;;;;;5012145;28;20998;-81
2023/02/17 08:34:05;;;;;;;27.65;24.63;;;8.90;99.90;;;;;;5009244;28;20407;-83
2023/02/17 08:36:31;;;;;;;26.85;24.05;;;8.90;99.90;;;;;;4990414;28;20453;-83
2023/02/17 08:38:58;;;;;;;27.40;24.27;;;8.90;99.90;;;;;;5004861;28;20441;-82
2023/02/17 08:41:30;;;;;;;28.38;24.58;;;8.90;99.90;;;;;;5008166;28;20379;-83
2023/02/17 08:43:57;;;;;;;27.90;24.90;;;8.90;99.90;;;;;;5008151;28;20430;-83
2023/02/17 08:46:24;;;;;;;28.85;25.77;;;8.90;99.90;;;;;;5007408;28;20440;-83
2023/02/17 08:48:50;;;;;;;28.55;25.05;;;8.90;99.90;;;;;;5007581;28;20486;-83
2023/02/17 08:51:22;;;;;;;27.75;24.75;;;8.90;99.90;;;;;;5007560;28;20398;-83
2023/02/17 08:53:49;;;;;;;28.58;25.40;;;8.90;99.90;;;;;;5006522;28;20391;-84
2023/02/17 08:56:15;;;;;;;29.70;25.20;;;8.90;99.90;;;;;;5007679;28;20380;-84
2023/02/17 08:58:41;;;;;;;29.25;25.00;;;8.90;99.90;;;;;;5006477;28;20390;-81
2023/02/17 09:01:07;;;;;;;28.03;24.90;;;8.90;99.90;;;;;;5007948;28;20387;-83
2023/02/17 09:03:37;;;;;;;29.23;25.93;;;8.90;99.90;;;;;;5009607;28;20823;-83
2023/02/17 09:06:03;;;;;;;29.95;25.98;;;9.00;99.90;;;;;;5011417;28;20457;-83
2023/02/17 09:08:29;;;;;;;29.35;25.75;;;8.90;99.90;;;;;;5011172;28;20418;-83
2023/02/17 09:10:58;;;;;;;31.02;26.05;;;8.90;99.90;;;;;;5011114;28;20870;-81
2023/02/17 09:13:25;;;;;;;28.92;25.67;;;8.90;99.90;;;;;;5010596;28;20383;-83
2023/02/17 09:15:52;;;;;;;31.02;26.50;;;8.90;99.90;;;;;;5009944;28;20395;-83
2023/02/17 09:18:20;;;;;;;29.25;25.95;;;9.10;99.90;;;;;;5012094;28;20446;-84
2023/02/17 09:20:46;;;;;;;30.55;26.00;;;9.10;99.90;;;;;;5006977;28;20898;-80
2023/02/17 09:23:14;;;;;;;29.98;26.08;;;9.10;99.90;;;;;;5010129;28;20391;-82
2023/02/17 09:25:45;;;;;;;32.00;28.17;;;9.10;99.90;;;;;;5014130;28;20536;-83
2023/02/17 09:28:19;;;;;;;33.35;29.60;;;9.00;99.90;;;;;;5029603;28;20376;-84
2023/02/17 09:30:48;;;;;;;31.30;27.70;;;9.00;99.90;;;;;;5030185;28;20481;-83
2023/02/17 09:33:14;;;;;;;34.22;29.30;;;9.10;99.90;;;;;;5030922;28;20509;-84
2023/02/17 09:35:48;;;;;;;37.97;30.90;;;9.00;99.90;;;;;;5028785;28;20480;-83
2023/02/17 09:38:22;;;;;;;36.53;30.63;;;8.90;99.90;;;;;;5008129;28;20403;-84
2023/02/17 09:40:50;;;;;;;37.73;32.40;;;9.00;99.90;;;;;;5010424;28;20476;-82
2023/02/17 09:43:23;;;;;;;37.40;32.28;;;8.90;99.90;;;;;;5010375;28;20391;-84
2023/02/17 09:46:08;;;;;;;36.92;31.67;;;8.90;99.90;;;;;;5010157;28;20379;-84
2023/02/17 09:48:36;;;;;;;38.23;33.03;;;9.10;99.90;;;;;;5010022;28;20466;-84
2023/02/17 09:51:29;;;;;;;40.55;32.85;;;9.00;99.90;;;;;;5010013;28;20836;-83
2023/02/17 09:54:17;;;;;;;38.70;32.75;;;9.10;99.90;;;;;;5009864;28;20399;-84
2023/02/17 09:56:47;;;;;;;38.20;32.85;;;9.10;99.90;;;;;;5008539;28;20432;-84
2023/02/17 09:59:15;;;;;;;41.72;34.85;;;9.00;99.90;;;;;;5008811;28;20379;-84
2023/02/17 10:01:45;;;;;;;38.50;32.57;;;9.10;99.90;;;;;;5010364;28;20459;-84
2023/02/17 10:04:36;;;;;;;40.35;33.72;;;9.20;99.90;;;;;;5009041;28;20395;-84
2023/02/17 10:07:25;;;;;;;42.22;34.83;;;9.00;99.90;;;;;;5000341;28;20816;-83
2023/02/17 10:10:26;;;;;;;40.05;33.58;;;9.00;99.90;;;;;;5010047;28;20877;-84
2023/02/17 10:13:06;;;;;;;38.67;34.40;;;9.10;99.90;;;;;;5010352;28;20383;-84
2023/02/17 10:15:41;;;;;;;39.78;33.78;;;9.20;99.90;;;;;;5009987;28;20387;-83
2023/02/17 10:18:13;;;;;;;42.35;34.30;;;9.20;99.90;;;;;;5009849;28;20383;-83
2023/02/17 10:20:41;;;;;;;40.00;34.07;;;9.20;99.90;;;;;;5011368;28;20393;-82
2023/02/17 10:23:19;;;;;;;45.80;38.50;;;9.20;99.90;;;;;;5011568;28;20479;-84
2023/02/17 10:26:26;;;;;;;40.17;35.35;;;9.20;99.90;;;;;;5016566;28;20464;-87
2023/02/17 10:29:05;;;;;;;39.05;34.60;;;9.30;99.90;;;;;;4964573;28;20394;-87
2023/02/17 10:31:44;;;;;;;39.90;34.03;;;9.20;99.90;;;;;;5012202;28;20984;-87
2023/02/17 10:34:22;;;;;;;39.42;33.80;;;9.30;99.90;;;;;;5012766;28;20384;-86
2023/02/17 10:37:02;;;;;;;39.03;33.33;;;9.30;99.90;;;;;;5014359;28;20378;-86
2023/02/17 10:39:44;;;;;;;36.25;31.67;;;9.30;99.90;;;;;;5012412;28;20383;-87
2023/02/17 10:42:24;;;;;;;36.38;32.47;;;9.40;99.90;;;;;;5028094;28;20409;-84
2023/02/17 10:44:53;;;;;;;35.78;31.55;;;9.40;99.90;;;;;;5016117;28;20387;-83
2023/02/17 10:47:20;;;;;;;36.27;32.37;;;9.50;99.90;;;;;;5008816;28;20375;-85
2023/02/17 10:50:00;;;;;;;33.85;30.25;;;9.40;99.90;;;;;;5012438;28;20401;-83
2023/02/17 10:52:40;;;;;;;33.72;30.10;;;9.50;99.90;;;;;;5024760;28;20479;-82
2023/02/17 10:55:20;;;;;;;34.60;30.67;;;9.50;99.90;;;;;;5018064;28;20466;-84
2023/02/17 10:57:51;;;;;;;32.17;28.77;;;9.60;99.90;;;;;;5010932;28;20424;-81
2023/02/17 11:00:18;;;;;;;31.52;28.13;;;9.60;99.90;;;;;;5019475;28;20395;-82
2023/02/17 11:02:47;;;;;;;31.15;27.55;;;9.60;99.90;;;;;;5009682;28;20455;-83
2023/02/17 11:05:40;;;;;;;31.15;27.75;;;9.70;99.90;;;;;;5010361;28;20403;-85
2023/02/17 11:08:44;;;;;;;31.45;27.45;;;9.70;99.90;;;;;;5005389;28;20870;-84
2023/02/17 11:11:26;;;;;;;29.50;26.40;;;9.70;99.90;;;;;;5021253;28;20408;-86
2023/02/17 11:14:10;;;;;;;27.73;24.83;;;9.80;99.90;;;;;;5023154;28;20408;-83
2023/02/17 11:16:46;;;;;;;27.40;24.60;;;9.80;99.90;;;;;;5029309;28;20492;-83
2023/02/17 11:19:34;;;;;;;26.42;23.52;;;9.90;99.90;;;;;;5028696;28;21986;-82
2023/02/17 11:22:04;;;;;;;25.88;23.17;;;10.00;99.90;;;;;;5013961;28;20432;-83
2023/02/17 11:24:32;;;;;;;26.27;23.48;;;9.90;99.90;;;;;;4991123;28;20417;-84
2023/02/17 11:27:10;;;;;;;26.10;23.10;;;10.00;99.90;;;;;;5008964;28;20395;-83
2023/02/17 11:29:36;;;;;;;25.42;22.75;;;10.00;99.90;;;;;;5007478;28;20391;-84
2023/02/17 11:32:12;;;;;;;25.50;22.83;;;10.00;99.90;;;;;;4991857;28;20411;-82
2023/02/17 11:34:40;;;;;;;24.52;21.98;;;10.10;99.90;;;;;;5015904;28;20542;-82
2023/02/17 11:37:12;;;;;;;22.83;20.45;;;10.10;99.90;;;;;;5018258;28;20486;-84
2023/02/17 11:39:39;;;;;;;22.60;20.20;;;10.20;99.90;;;;;;5029943;28;20369;-85
2023/02/17 11:42:25;;;;;;;24.52;21.92;;;10.20;99.90;;;;;;5027377;28;20377;-83
2023/02/17 11:44:53;;;;;;;22.17;19.80;;;10.20;99.90;;;;;;5021886;28;20444;-84
2023/02/17 11:47:41;;;;;;;21.23;19.05;;;10.20;99.90;;;;;;5007406;28;20511;-83
2023/02/17 11:50:41;;;;;;;21.37;19.07;;;10.30;99.90;;;;;;5010318;28;20425;-83
2023/02/17 11:53:13;;;;;;;21.27;19.00;;;10.30;99.90;;;;;;5008640;28;20406;-83
2023/02/17 11:56:07;;;;;;;21.17;18.83;;;10.40;99.90;;;;;;5016235;28;20413;-82
2023/02/17 11:58:48;;;;;;;19.73;17.73;;;10.40;99.90;;;;;;4989451;28;20381;-84
2023/02/17 12:01:22;;;;;;;19.67;17.63;;;10.50;99.90;;;;;;4999105;28;20426;-82
2023/02/17 12:04:27;;;;;;;19.77;17.85;;;10.50;99.90;;;;;;5019619;28;20491;-83
2023/02/17 12:07:09;;;;;;;19.67;17.58;;;10.50;99.90;;;;;;5011553;28;20420;-83
2023/02/17 12:10:03;;;;;;;17.77;16.08;;;10.70;99.90;;;;;;5028395;28;20522;-82
2023/02/17 12:12:56;;;;;;;17.33;15.63;;;10.70;99.90;;;;;;5010059;28;20401;-84
2023/02/17 12:15:38;;;;;;;17.52;15.73;;;10.80;99.90;;;;;;4989016;28;21002;-84
2023/02/17 12:18:18;;;;;;;17.00;15.30;;;10.90;99.90;;;;;;5003456;28;20432;-84
2023/02/17 12:20:59;;;;;;;17.48;15.57;;;11.00;99.90;;;;;;4999617;28;20406;-84
2023/02/17 12:23:46;;;;;;;17.13;15.25;;;11.00;99.90;;;;;;5006528;28;20430;-85
2023/02/17 12:26:33;;;;;;;15.40;13.90;;;11.20;99.90;;;;;;5016915;28;20419;-84
2023/02/17 12:29:22;;;;;;;15.35;13.82;;;11.20;99.90;;;;;;5028187;28;20419;-83
2023/02/17 12:32:31;;;;;;;14.85;13.35;;;11.30;99.90;;;;;;5028958;28;20960;-86
2023/02/17 12:35:20;;;;;;;14.68;13.27;;;11.20;99.90;;;;;;5025652;28;20437;-87
2023/02/17 12:38:15;;;;;;;13.57;12.27;;;11.40;99.90;;;;;;4993668;28;20405;-82
2023/02/17 12:40:57;;;;;;;14.63;13.07;;;11.40;99.90;;;;;;5009939;28;20430;-83
2023/02/17 12:43:22;;;;;;;14.10;12.70;;;11.50;99.90;;;;;;5011586;28;20758;-81
2023/02/17 12:45:50;;;;;;;13.90;12.57;;;11.60;99.90;;;;;;5031546;28;20439;-85
2023/02/17 12:48:32;;;;;;;13.40;12.10;;;11.60;99.90;;;;;;5013789;28;20389;-84
2023/02/17 12:51:05;;;;;;;12.88;11.68;;;11.50;99.90;;;;;;5014358;28;20971;-86
2023/02/17 12:53:42;;;;;;;11.93;10.82;;;11.50;99.90;;;;;;5029914;28;20907;-83
2023/02/17 12:56:47;;;;;;;12.50;11.30;;;11.60;99.90;;;;;;5030037;28;20405;-82
2023/02/17 12:59:20;;;;;;;12.55;11.40;;;11.60;99.90;;;;;;5031741;28;20404;-83